createdAt,value
2022-07-27T00:01:09.997Z,101479.56
2022-07-27T00:03:39.368Z,101488.72
2022-07-27T00:06:07.777Z,101481.72
2022-07-27T00:08:35.963Z,101480.25
2022-07-27T00:11:04.149Z,101481.38
2022-07-27T00:13:32.215Z,101480.81
2022-07-27T00:16:00.235Z,101469.47
2022-07-27T00:18:28.190Z,101474.84
2022-07-27T00:20:57.506Z,101472.06
2022-07-27T00:23:25.457Z,101474.25
2022-07-27T00:25:53.585Z,101461.47
2022-07-27T00:28:21.560Z,101470.66
2022-07-27T00:30:49.591Z,101478.44
2022-07-27T00:33:17.693Z,101473.13
2022-07-27T00:35:46.058Z,101473.97
2022-07-27T00:38:16.640Z,101478.28
2022-07-27T00:40:45.242Z,101477.56
2022-07-27T00:43:13.372Z,101476.56
2022-07-27T00:45:41.775Z,101480.06
2022-07-27T00:48:09.750Z,101466.78
2022-07-27T00:50:39.082Z,101473.41
2022-07-27T00:53:07.075Z,101471.66
2022-07-27T00:55:36.870Z,101473.41
2022-07-27T00:58:06.107Z,101468.53
2022-07-27T01:00:34.064Z,101470.25
2022-07-27T01:03:07.393Z,101475.84
2022-07-27T01:05:43.190Z,101477.13
2022-07-27T01:08:14.112Z,101470.38
2022-07-27T01:10:44.725Z,101466.63
2022-07-27T01:13:13.487Z,101478.84
2022-07-27T01:15:42.872Z,101476.25
2022-07-27T01:18:13.142Z,101474.69
2022-07-27T01:20:41.619Z,101467.53
2022-07-27T01:23:11.178Z,101480.88
2022-07-27T01:25:42.626Z,101474.72
2022-07-27T01:28:10.686Z,101479.56
2022-07-27T01:30:38.655Z,101479.88
2022-07-27T01:33:08.462Z,101477.91
2022-07-27T01:35:36.579Z,101464.78
2022-07-27T01:38:05.041Z,101468.81
2022-07-27T01:40:36.700Z,101472.97
2022-07-27T01:43:05.174Z,101471.41
2022-07-27T01:45:33.291Z,101471.25
2022-07-27T01:48:01.234Z,101468.81
2022-07-27T01:50:29.644Z,101469.53
2022-07-27T01:52:57.573Z,101468.09
2022-07-27T01:55:25.525Z,101464.09
2022-07-27T01:57:54.842Z,101464.22
2022-07-27T02:00:22.792Z,101463.66
2022-07-27T02:02:50.716Z,101468.97
2022-07-27T02:05:18.728Z,101463.22
2022-07-27T02:07:46.723Z,101464.22
2022-07-27T02:10:14.666Z,101469.13
2022-07-27T02:12:41.699Z,101462.78
2022-07-27T02:15:14.880Z,101461.63
2022-07-27T02:17:44.766Z,101460.91
2022-07-27T02:20:14.390Z,101457.63
2022-07-27T02:22:42.695Z,101470.41
2022-07-27T02:25:12.166Z,101463.66
2022-07-27T02:27:40.388Z,101466.38
2022-07-27T02:30:11.346Z,101459.84
2022-07-27T02:32:40.551Z,101459.13
2022-07-27T02:35:18.568Z,101462.84
2022-07-27T02:37:48.230Z,101454.47
2022-07-27T02:40:17.316Z,101457.91
2022-07-27T02:42:45.681Z,101453.75
2022-07-27T02:45:15.268Z,101452.47
2022-07-27T02:47:43.513Z,101457.47
2022-07-27T02:50:12.155Z,101456.31
2022-07-27T02:52:40.335Z,101452.59
2022-07-27T02:55:09.204Z,101449.00
2022-07-27T02:57:40.857Z,101456.72
2022-07-27T03:00:12.518Z,101459.63
2022-07-27T03:02:42.172Z,101458.03
2022-07-27T03:05:11.080Z,101451.31
2022-07-27T03:07:39.148Z,101460.06
2022-07-27T03:10:08.038Z,101457.50
2022-07-27T03:12:36.079Z,101461.50
2022-07-27T03:15:04.199Z,101458.75
2022-07-27T03:17:32.937Z,101454.59
2022-07-27T03:20:02.359Z,101456.91
2022-07-27T03:22:32.620Z,101454.41
2022-07-27T03:25:00.694Z,101455.03
2022-07-27T03:27:29.183Z,101462.50
2022-07-27T03:29:57.266Z,101460.59
2022-07-27T03:32:25.592Z,101462.72
2022-07-27T03:34:53.649Z,101466.38
2022-07-27T03:37:22.964Z,101473.94
2022-07-27T03:39:50.931Z,101468.13
2022-07-27T03:42:18.846Z,101476.47
2022-07-27T03:44:46.795Z,101479.00
2022-07-27T03:47:14.898Z,101481.28
2022-07-27T03:49:42.843Z,101483.34
2022-07-27T03:52:15.683Z,101486.66
2022-07-27T03:54:47.047Z,101486.88
2022-07-27T03:57:15.708Z,101480.59
2022-07-27T03:59:43.640Z,101474.28
2022-07-27T04:02:11.775Z,101481.50
2022-07-27T04:04:39.861Z,101465.31
2022-07-27T04:07:07.841Z,101471.72
2022-07-27T04:09:36.118Z,101469.53
2022-07-27T04:12:06.137Z,101470.38
2022-07-27T04:14:34.127Z,101477.25
2022-07-27T04:17:02.186Z,101479.41
2022-07-27T04:19:30.222Z,101481.50
2022-07-27T04:21:58.319Z,101472.69
2022-07-27T04:24:26.283Z,101482.13
2022-07-27T04:26:54.197Z,101483.59
2022-07-27T04:29:23.938Z,101488.88
2022-07-27T04:31:52.262Z,101479.00
2022-07-27T04:34:21.193Z,101484.44
2022-07-27T04:36:49.927Z,101480.03
2022-07-27T04:39:17.915Z,101481.16
2022-07-27T04:41:45.913Z,101482.13
2022-07-27T04:44:13.988Z,101485.88
2022-07-27T04:46:43.678Z,101496.03
2022-07-27T04:49:11.903Z,101484.72
2022-07-27T04:51:43.803Z,101486.59
2022-07-27T04:54:12.403Z,101492.63
2022-07-27T04:56:40.389Z,101490.34
2022-07-27T04:59:08.525Z,101485.28
2022-07-27T05:01:37.088Z,101490.94
2022-07-27T05:04:06.734Z,101497.59
2022-07-27T05:06:34.910Z,101496.06
2022-07-27T05:09:02.898Z,101497.09
2022-07-27T05:11:30.887Z,101494.22
2022-07-27T05:13:58.830Z,101491.75
2022-07-27T05:16:29.031Z,101495.19
2022-07-27T05:18:57.453Z,101492.06
2022-07-27T05:21:27.400Z,101489.31
2022-07-27T05:23:56.059Z,101495.28
2022-07-27T05:26:24.139Z,101488.03
2022-07-27T05:28:52.114Z,101492.19
2022-07-27T05:31:20.167Z,101503.28
2022-07-27T05:33:49.909Z,101506.88
2022-07-27T05:36:19.298Z,101504.00
2022-07-27T05:38:48.661Z,101508.00
2022-07-27T05:41:16.722Z,101511.59
2022-07-27T05:43:44.679Z,101514.16
2022-07-27T05:46:12.758Z,101515.31
2022-07-27T05:48:40.765Z,101520.94
2022-07-27T05:51:09.588Z,101516.59
2022-07-27T05:53:37.528Z,101530.38
2022-07-27T05:56:07.999Z,101522.47
2022-07-27T05:58:36.272Z,101518.19
2022-07-27T06:01:04.560Z,101529.66
2022-07-27T06:03:32.952Z,101522.66
2022-07-27T06:06:18.546Z,101534.97
2022-07-27T06:08:46.463Z,101539.72
2022-07-27T06:11:15.801Z,101537.31
2022-07-27T06:13:43.804Z,101528.38
2022-07-27T06:16:11.989Z,101537.88
2022-07-27T06:18:40.231Z,101545.03
2022-07-27T06:21:08.197Z,101544.69
2022-07-27T06:23:36.118Z,101535.53
2022-07-27T06:26:04.055Z,101536.47
2022-07-27T06:28:33.545Z,101550.34
2022-07-27T06:31:01.480Z,101547.91
2022-07-27T06:33:30.843Z,101550.34
2022-07-27T06:36:01.473Z,101550.06
2022-07-27T06:38:30.022Z,101552.06
2022-07-27T06:40:58.347Z,101552.06
2022-07-27T06:43:28.006Z,101550.56
2022-07-27T06:45:58.292Z,101553.63
2022-07-27T06:48:26.764Z,101557.63
2022-07-27T06:50:55.114Z,101561.94
2022-07-27T06:53:23.309Z,101559.22
2022-07-27T06:55:51.534Z,101559.91
2022-07-27T06:58:20.109Z,101551.22
2022-07-27T07:00:48.697Z,101553.56
2022-07-27T07:03:18.639Z,101566.16
2022-07-27T07:05:48.055Z,101558.78
2022-07-27T07:08:15.993Z,101563.22
2022-07-27T07:10:45.251Z,101559.53
2022-07-27T07:13:13.289Z,101566.03
2022-07-27T07:15:42.684Z,101572.16
2022-07-27T07:18:11.868Z,101572.22
2022-07-27T07:20:41.830Z,101568.34
2022-07-27T07:23:10.070Z,101576.03
2022-07-27T07:25:38.631Z,101567.22
2022-07-27T07:28:07.647Z,101582.84
2022-07-27T07:30:35.749Z,101578.94
2022-07-27T07:33:03.866Z,101577.34
2022-07-27T07:35:31.858Z,101576.06
2022-07-27T07:38:01.230Z,101580.25
2022-07-27T07:40:43.305Z,101578.56
2022-07-27T07:43:13.205Z,101580.56
2022-07-27T07:45:51.069Z,101580.66
2022-07-27T07:48:20.278Z,101578.38
2022-07-27T07:50:52.094Z,101581.34
2022-07-27T07:53:23.076Z,101579.88
2022-07-27T07:55:51.479Z,101580.63
2022-07-27T07:58:19.668Z,101577.00
2022-07-27T08:00:47.689Z,101567.03
2022-07-27T08:03:15.992Z,101576.66
2022-07-27T08:05:44.154Z,101581.44
2022-07-27T08:08:12.281Z,101589.25
2022-07-27T08:10:41.588Z,101585.59
2022-07-27T08:13:09.859Z,101584.97
2022-07-27T08:15:37.922Z,101584.41
2022-07-27T08:18:06.626Z,101583.25
2022-07-27T08:20:35.056Z,101581.78
2022-07-27T08:23:03.435Z,101578.69
2022-07-27T08:25:31.572Z,101584.03
2022-07-27T08:28:02.032Z,101584.97
2022-07-27T08:30:32.449Z,101592.34
2022-07-27T08:33:02.519Z,101596.88
2022-07-27T08:35:31.084Z,101598.78
2022-07-27T08:37:59.091Z,101607.50
2022-07-27T08:40:45.947Z,101605.59
2022-07-27T08:43:24.039Z,101609.50
2022-07-27T08:45:57.148Z,101610.56
2022-07-27T08:48:25.836Z,101608.53
2022-07-27T08:50:54.481Z,101614.63
2022-07-27T08:53:22.923Z,101620.72
2022-07-27T08:55:51.161Z,101617.47
2022-07-27T08:58:20.694Z,101620.31
2022-07-27T09:00:49.968Z,101611.09
2022-07-27T09:03:21.064Z,101612.75
2022-07-27T09:05:51.053Z,101607.44
2022-07-27T09:08:22.574Z,101601.22
2022-07-27T09:10:51.122Z,101606.22
2022-07-27T09:13:23.268Z,101613.59
2022-07-27T09:16:17.002Z,101612.91
2022-07-27T09:18:40.706Z,101620.97
2022-07-27T09:21:10.481Z,101614.34
2022-07-27T09:23:38.689Z,101625.13
2022-07-27T09:26:30.577Z,101619.72
2022-07-27T09:29:03.323Z,101619.94
2022-07-27T09:31:31.843Z,101616.41
2022-07-27T09:34:01.290Z,101605.53
2022-07-27T09:36:30.149Z,101604.28
2022-07-27T09:39:03.232Z,101597.34
2022-07-27T09:41:42.693Z,101611.28
2022-07-27T09:44:31.202Z,101605.91
2022-07-27T09:47:00.273Z,101612.97
2022-07-27T09:49:30.090Z,101611.56
2022-07-27T09:52:00.510Z,101613.69
2022-07-27T09:54:29.338Z,101619.56
2022-07-27T09:57:04.090Z,101613.84
2022-07-27T09:59:33.405Z,101620.44
2022-07-27T10:02:01.700Z,101622.00
2022-07-27T10:04:29.808Z,101624.09
2022-07-27T10:07:08.340Z,101616.72
2022-07-27T10:09:40.578Z,101627.50
2022-07-27T10:12:09.650Z,101621.69
2022-07-27T10:14:38.966Z,101611.00
2022-07-27T10:17:07.594Z,101607.69
2022-07-27T10:19:40.530Z,101606.09
2022-07-27T10:22:08.517Z,101597.88
2022-07-27T10:24:37.370Z,101612.59
2022-07-27T10:27:20.447Z,101621.84
2022-07-27T10:29:51.120Z,101634.81
2022-07-27T10:32:25.657Z,101621.19
2022-07-27T10:34:53.658Z,101628.50
2022-07-27T10:37:26.505Z,101615.00
2022-07-27T10:40:16.108Z,101617.25
2022-07-27T10:42:44.422Z,101620.03
2022-07-27T10:45:14.792Z,101621.50
2022-07-27T10:47:45.844Z,101615.88
2022-07-27T10:50:33.442Z,101631.56
2022-07-27T10:53:03.908Z,101626.91
2022-07-27T10:55:51.637Z,101632.19
2022-07-27T10:58:44.858Z,101629.47
2022-07-27T11:01:15.824Z,101638.88
2022-07-27T11:03:49.442Z,101636.50
2022-07-27T11:06:32.999Z,101639.81
2022-07-27T11:10:02.489Z,101641.34
2022-07-27T11:11:54.910Z,101645.19
2022-07-27T11:14:30.180Z,101654.59
2022-07-27T11:17:32.514Z,101644.53
2022-07-27T11:19:54.633Z,101643.22
2022-07-27T11:23:03.136Z,101645.19
2022-07-27T11:25:21.232Z,101638.06
2022-07-27T11:27:51.451Z,101640.31
2022-07-27T11:30:23.838Z,101641.84
2022-07-27T11:32:53.708Z,101644.25
2022-07-27T11:35:22.049Z,101655.88
2022-07-27T11:38:00.952Z,101645.66
2022-07-27T11:43:33.705Z,101656.41
2022-07-27T11:46:13.570Z,101638.75
2022-07-27T11:49:05.864Z,101647.50
2022-07-27T11:51:35.343Z,101656.09
2022-07-27T11:54:04.752Z,101657.44
2022-07-27T11:56:34.718Z,101658.34
2022-07-27T11:59:06.586Z,101659.25
2022-07-27T12:01:36.643Z,101647.88
2022-07-27T12:04:21.680Z,101641.66
2022-07-27T12:06:56.458Z,101654.69
2022-07-27T12:09:24.697Z,101655.91
2022-07-27T12:11:58.883Z,101658.03
2022-07-27T12:14:33.632Z,101646.38
2022-07-27T12:17:19.976Z,101659.34
2022-07-27T12:19:59.086Z,101664.31
2022-07-27T12:22:30.343Z,101659.59
2022-07-27T12:24:59.654Z,101661.25
2022-07-27T12:27:28.927Z,101660.31
2022-07-27T12:29:58.907Z,101652.97
2022-07-27T12:32:27.680Z,101655.56
2022-07-27T12:34:57.557Z,101658.34
2022-07-27T12:37:30.581Z,101654.72
2022-07-27T12:39:58.644Z,101647.59
2022-07-27T12:42:37.488Z,101644.00
2022-07-27T12:45:17.454Z,101637.84
2022-07-27T12:47:45.756Z,101638.16
2022-07-27T12:50:16.126Z,101639.31
2022-07-27T12:52:47.117Z,101637.00
2022-07-27T12:55:17.812Z,101633.63
2022-07-27T12:57:55.687Z,101635.38
2022-07-27T13:00:30.906Z,101631.06
2022-07-27T13:03:01.790Z,101644.66
2022-07-27T13:05:31.614Z,101646.00
2022-07-27T13:07:59.782Z,101626.56
2022-07-27T13:10:28.194Z,101646.41
2022-07-27T13:12:56.252Z,101633.84
2022-07-27T13:15:24.345Z,101644.78
2022-07-27T13:17:52.291Z,101645.44
2022-07-27T13:20:20.305Z,101659.00
2022-07-27T13:22:49.757Z,101665.47
2022-07-27T13:25:18.464Z,101671.09
2022-07-27T13:27:47.260Z,101659.13
2022-07-27T13:30:16.969Z,101674.56
2022-07-27T13:32:46.733Z,101659.63
2022-07-27T13:35:16.725Z,101667.88
2022-07-27T13:37:45.815Z,101669.59
2022-07-27T13:40:15.992Z,101665.94
2022-07-27T13:42:43.939Z,101658.97
2022-07-27T13:45:12.528Z,101657.38
2022-07-27T13:47:41.630Z,101668.31
2022-07-27T13:50:17.045Z,101668.88
2022-07-27T13:52:46.071Z,101665.59
2022-07-27T13:55:16.171Z,101668.69
2022-07-27T13:57:44.357Z,101661.25
2022-07-27T14:00:13.435Z,101666.16
2022-07-27T14:02:41.872Z,101669.25
2022-07-27T14:05:13.943Z,101670.34
2022-07-27T14:07:43.258Z,101671.88
2022-07-27T14:10:30.301Z,101673.84
2022-07-27T14:13:07.424Z,101680.16
2022-07-27T14:15:50.407Z,101682.13
2022-07-27T14:18:26.213Z,101681.88
2022-07-27T14:20:54.786Z,101682.50
2022-07-27T14:23:23.300Z,101669.09
2022-07-27T14:25:51.650Z,101663.75
2022-07-27T14:28:21.426Z,101674.13
2022-07-27T14:30:49.942Z,101661.44
2022-07-27T14:33:18.003Z,101669.91
2022-07-27T14:35:46.386Z,101667.28
2022-07-27T14:38:15.165Z,101667.41
2022-07-27T14:40:56.058Z,101664.31
2022-07-27T14:43:25.462Z,101665.63
2022-07-27T14:45:53.407Z,101671.13
2022-07-27T14:48:36.801Z,101661.56
2022-07-27T14:51:09.520Z,101658.09
2022-07-27T14:53:37.475Z,101655.69
2022-07-27T14:56:05.888Z,101649.47
2022-07-27T14:58:35.204Z,101654.53
2022-07-27T15:01:03.449Z,101660.22
2022-07-27T15:03:31.480Z,101649.53
2022-07-27T15:05:59.444Z,101642.13
2022-07-27T15:08:27.414Z,101648.81
2022-07-27T15:10:57.296Z,101655.56
2022-07-27T15:13:25.656Z,101656.91
2022-07-27T15:15:56.238Z,101645.16
2022-07-27T15:18:24.306Z,101645.19
2022-07-27T15:20:52.264Z,101648.03
2022-07-27T15:23:20.204Z,101644.78
2022-07-27T15:25:48.167Z,101646.78
2022-07-27T15:28:16.590Z,101649.56
2022-07-27T15:30:44.582Z,101649.81
2022-07-27T15:33:13.879Z,101653.97
2022-07-27T15:35:41.829Z,101658.88
2022-07-27T15:38:09.816Z,101646.84
2022-07-27T15:40:41.833Z,101656.97
2022-07-27T15:43:12.279Z,101661.31
2022-07-27T15:45:41.101Z,101655.94
2022-07-27T15:48:10.216Z,101646.53
2022-07-27T15:50:40.600Z,101648.19
2022-07-27T15:53:08.941Z,101647.31
2022-07-27T15:55:37.600Z,101645.91
2022-07-27T15:58:05.800Z,101648.09
2022-07-27T16:00:39.064Z,101650.88
2022-07-27T16:03:08.333Z,101639.13
2022-07-27T16:05:36.315Z,101639.53
2022-07-27T16:08:06.218Z,101637.06
2022-07-27T16:10:34.235Z,101643.78
2022-07-27T16:13:02.947Z,101639.34
2022-07-27T16:15:44.850Z,101634.91
2022-07-27T16:18:13.006Z,101633.78
2022-07-27T16:20:41.066Z,101638.03
2022-07-27T16:23:17.731Z,101629.88
2022-07-27T16:26:07.570Z,101644.44
2022-07-27T16:28:38.830Z,101641.97
2022-07-27T16:31:08.327Z,101630.47
2022-07-27T16:33:36.431Z,101645.09
2022-07-27T16:36:05.446Z,101646.06
2022-07-27T16:38:35.114Z,101641.16
2022-07-27T16:41:07.365Z,101629.25
2022-07-27T16:43:38.084Z,101633.91
2022-07-27T16:46:06.539Z,101640.47
2022-07-27T16:48:41.538Z,101631.28
2022-07-27T16:51:15.033Z,101637.31
2022-07-27T16:53:46.230Z,101641.03
2022-07-27T16:56:14.637Z,101634.78
2022-07-27T16:58:43.455Z,101635.88
2022-07-27T17:01:13.567Z,101640.31
2022-07-27T17:03:51.368Z,101639.91
2022-07-27T17:06:20.941Z,101635.91
2022-07-27T17:08:50.341Z,101643.56
2022-07-27T17:11:21.687Z,101646.91
2022-07-27T17:13:50.131Z,101644.03
2022-07-27T17:16:18.421Z,101633.75
2022-07-27T17:18:47.161Z,101641.91
2022-07-27T17:21:15.146Z,101646.97
2022-07-27T17:23:43.865Z,101651.00
2022-07-27T17:26:14.513Z,101635.69
2022-07-27T17:28:42.449Z,101636.41
2022-07-27T17:31:13.237Z,101632.34
2022-07-27T17:33:42.390Z,101645.19
2022-07-27T17:36:15.068Z,101648.25
2022-07-27T17:38:43.909Z,101658.91
2022-07-27T17:41:13.659Z,101653.09
2022-07-27T17:43:41.665Z,101651.38
2022-07-27T17:46:10.728Z,101660.91
2022-07-27T17:48:40.692Z,101658.47
2022-07-27T17:51:10.622Z,101669.28
2022-07-27T17:53:39.083Z,101670.66
2022-07-27T17:56:08.437Z,101663.84
2022-07-27T17:58:38.217Z,101676.81
2022-07-27T18:01:06.977Z,101674.63
2022-07-27T18:03:35.149Z,101672.41
2022-07-27T18:06:03.160Z,101674.19
2022-07-27T18:08:31.165Z,101680.09
2022-07-27T18:10:59.129Z,101683.00
2022-07-27T18:13:39.593Z,101675.22
2022-07-27T18:16:11.713Z,101679.47
2022-07-27T18:18:40.916Z,101682.06
2022-07-27T18:21:09.439Z,101671.25
2022-07-27T18:23:37.391Z,101676.22
2022-07-27T18:26:05.582Z,101677.41
2022-07-27T18:28:39.495Z,101684.47
2022-07-27T18:31:12.495Z,101671.56
2022-07-27T18:33:45.790Z,101681.88
2022-07-27T18:36:14.354Z,101682.34
2022-07-27T18:38:45.049Z,101683.25
2022-07-27T18:41:13.878Z,101681.19
2022-07-27T18:43:41.785Z,101680.69
2022-07-27T18:46:11.178Z,101681.09
2022-07-27T18:48:39.174Z,101682.41
2022-07-27T18:51:07.179Z,101690.69
2022-07-27T18:53:35.101Z,101678.19
2022-07-27T18:56:03.050Z,101689.66
2022-07-27T18:58:30.993Z,101697.66
2022-07-27T19:00:59.605Z,101691.16
2022-07-27T19:03:28.944Z,101695.63
2022-07-27T19:05:56.970Z,101693.25
2022-07-27T19:08:25.270Z,101694.47
2022-07-27T19:10:53.498Z,101697.69
2022-07-27T19:13:21.446Z,101700.56
2022-07-27T19:15:49.672Z,101701.09
2022-07-27T19:18:17.722Z,101710.31
2022-07-27T19:20:47.387Z,101707.84
2022-07-27T19:23:15.467Z,101709.34
2022-07-27T19:25:45.273Z,101713.97
2022-07-27T19:28:15.841Z,101709.75
2022-07-27T19:30:43.827Z,101722.06
2022-07-27T19:33:11.816Z,101724.75
2022-07-27T19:35:39.799Z,101728.22
2022-07-27T19:38:09.595Z,101726.59
2022-07-27T19:40:46.016Z,101732.41
2022-07-27T19:43:15.049Z,101745.81
2022-07-27T19:45:43.222Z,101739.31
2022-07-27T19:48:11.342Z,101740.94
2022-07-27T19:50:39.890Z,101742.81
2022-07-27T19:53:09.574Z,101746.56
2022-07-27T19:55:37.559Z,101741.66
2022-07-27T19:58:08.337Z,101738.34
2022-07-27T20:00:36.262Z,101741.63
2022-07-27T20:03:04.410Z,101741.22
2022-07-27T20:05:32.549Z,101748.25
2022-07-27T20:08:00.607Z,101740.91
2022-07-27T20:10:29.942Z,101752.59
2022-07-27T20:12:57.894Z,101740.78
2022-07-27T20:15:26.234Z,101751.00
2022-07-27T20:17:54.210Z,101743.78
2022-07-27T20:20:22.134Z,101745.03
2022-07-27T20:22:50.117Z,101743.16
2022-07-27T20:25:18.783Z,101741.25
2022-07-27T20:27:48.823Z,101750.97
2022-07-27T20:30:18.095Z,101746.72
2022-07-27T20:32:46.485Z,101740.31
2022-07-27T20:35:14.426Z,101744.31
2022-07-27T20:37:42.576Z,101743.06
2022-07-27T20:40:11.927Z,101744.69
2022-07-27T20:42:41.059Z,101738.97
2022-07-27T20:45:14.446Z,101754.59
2022-07-27T20:47:43.083Z,101748.28
2022-07-27T20:50:12.091Z,101746.13
2022-07-27T20:52:40.518Z,101746.13
2022-07-27T20:55:10.563Z,101743.47
2022-07-27T20:57:38.571Z,101752.53
2022-07-27T21:00:08.511Z,101743.00
2022-07-27T21:02:38.022Z,101746.44
2022-07-27T21:05:07.148Z,101755.00
2022-07-27T21:07:35.497Z,101758.53
2022-07-27T21:10:03.674Z,101752.25
2022-07-27T21:12:31.665Z,101756.09
2022-07-27T21:14:59.672Z,101752.50
2022-07-27T21:17:27.662Z,101755.69
2022-07-27T21:19:57.012Z,101759.88
2022-07-27T21:22:24.945Z,101750.03
2022-07-27T21:24:51.901Z,101749.63
2022-07-27T21:27:20.895Z,101748.19
2022-07-27T21:29:49.667Z,101754.06
2022-07-27T21:32:17.913Z,101754.84
2022-07-27T21:34:45.986Z,101756.47
2022-07-27T21:37:15.738Z,101749.69
2022-07-27T21:39:45.823Z,101755.84
2022-07-27T21:42:13.836Z,101756.25
2022-07-27T21:44:41.814Z,101751.25
2022-07-27T21:47:13.718Z,101766.22
2022-07-27T21:49:42.626Z,101756.56
2022-07-27T21:52:11.318Z,101769.56
2022-07-27T21:54:41.030Z,101758.44
2022-07-27T21:57:09.051Z,101765.09
2022-07-27T21:59:37.141Z,101756.88
2022-07-27T22:02:05.170Z,101751.88
2022-07-27T22:04:33.283Z,101754.75
2022-07-27T22:07:01.273Z,101757.47
2022-07-27T22:09:29.215Z,101760.41
2022-07-27T22:11:58.684Z,101748.75
2022-07-27T22:14:26.763Z,101754.72
2022-07-27T22:16:54.778Z,101756.03
2022-07-27T22:19:23.424Z,101761.91
2022-07-27T22:21:51.412Z,101763.31
2022-07-27T22:24:19.352Z,101764.25
2022-07-27T22:26:47.318Z,101762.97
2022-07-27T22:29:16.653Z,101771.59
2022-07-27T22:31:44.732Z,101767.72
2022-07-27T22:34:12.929Z,101772.19
2022-07-27T22:36:41.001Z,101771.25
2022-07-27T22:39:08.949Z,101771.59
2022-07-27T22:41:36.920Z,101765.53
2022-07-27T22:44:04.957Z,101769.44
2022-07-27T22:46:34.422Z,101766.53
2022-07-27T22:49:02.900Z,101771.25
2022-07-27T22:51:49.703Z,101769.22
2022-07-27T22:54:18.944Z,101767.16
2022-07-27T22:56:47.313Z,101770.16
2022-07-27T22:59:15.343Z,101774.06
2022-07-27T23:01:47.537Z,101770.31
2022-07-27T23:04:17.084Z,101776.72
2022-07-27T23:06:45.603Z,101777.50
2022-07-27T23:09:13.806Z,101777.78
2022-07-27T23:11:42.194Z,101772.78
2022-07-27T23:14:10.240Z,101777.84
2022-07-27T23:16:38.532Z,101779.69
2022-07-27T23:19:07.955Z,101779.09
2022-07-27T23:21:37.510Z,101784.03
2022-07-27T23:24:05.755Z,101774.47
2022-07-27T23:26:33.732Z,101771.91
2022-07-27T23:29:02.165Z,101769.13
2022-07-27T23:31:30.237Z,101775.63
2022-07-27T23:33:58.226Z,101768.19
2022-07-27T23:36:27.699Z,101770.25
2022-07-27T23:38:55.658Z,101762.72
2022-07-27T23:41:23.585Z,101766.84
2022-07-27T23:43:51.518Z,101767.56
2022-07-27T23:46:19.614Z,101767.59
2022-07-27T23:48:47.663Z,101771.25
2022-07-27T23:51:19.005Z,101773.28
2022-07-27T23:53:48.847Z,101775.94
2022-07-27T23:56:16.846Z,101772.94
2022-07-27T23:58:45.829Z,101770.50
